Kevin Michael — WDE6709 — position and weather

sailwx.info

Track history (hours):
 
Tides and Currents Weather Stations Pressure Air Temp Water Temp Dewpoint Dewpoint Depression Visibility Wind Speed Wind Dir Waves Ship Positions

Kevin Michael

Owner: Steel City Marine Transport, Inc., Freedom, PA. More information available from US FCC via Universal Licensing System and Coast Guard Vessel Documentation Center.

Last reported at 2018-Apr-29 20:18 UTC. Time now 2018-May-22 19:32 UTC.
Position N 39°12' W 090°36'.
Warning: this ship's position is 22 days out of date.

Length 36 m.

Type: Towing. MMSI: 367383660.

Date/timePositionNaut miles runAvg speedWind from/ knotsBaromVisibWave heightAir tempDewpointWater temp
2018-Apr-29 20:18N 39°12' W 090°36'1 3.5
2018-Apr-29 19:59N 39°11' W 090°36'2 3.7
2018-Apr-29 19:30N 39°09' W 090°37'1 1.8
2018-Apr-29 18:51N 39°08' W 090°36'1 3.8
2018-Apr-29 18:29N 39°06' W 090°36'2 3.9
2018-Apr-29 17:54N 39°04' W 090°35'1 3.1
2018-Apr-29 17:30N 39°03' W 090°35'2 3.6
2018-Apr-29 16:59N 39°01' W 090°34'2 3.5
2018-Apr-29 16:30N 38°60' W 090°34'2 3.5
2018-Apr-29 16:00N 38°58' W 090°33'2 3.7
2018-Apr-29 15:30N 38°57' W 090°31'2 3.9
2018-Apr-29 15:00N 38°58' W 090°28'2 4.3
2018-Apr-29 14:31N 38°58' W 090°26'2 4.0
2018-Apr-29 14:00N 38°58' W 090°23'2 4.4
2018-Apr-29 13:30N 38°56' W 090°21'2 4.3
2018-Apr-29 13:00N 38°55' W 090°18'0 0.8
2018-Apr-29 12:30N 38°55' W 090°18'1 2.3
2018-Apr-29 12:01N 38°55' W 090°16'2 4.2
2018-Apr-29 11:30N 38°55' W 090°14'2 4.2
2018-Apr-29 11:00N 38°53' W 090°12'2 4.5
2018-Apr-29 10:30N 38°52' W 090°09'0 0.9
2018-Apr-29 10:00N 38°52' W 090°09'1 1.7
2018-Apr-29 09:31N 38°52' W 090°08'0 0.5
2018-Apr-29 09:00N 38°51' W 090°08'0 0.0
2018-Apr-29 08:30N 38°51' W 090°08'0 0.0
2018-Apr-29 08:00N 38°51' W 090°08'1 1.6
2018-Apr-29 07:31N 38°51' W 090°07'1 2.9
2018-Apr-29 07:00N 38°50' W 090°07'2 3.7
2018-Apr-29 06:31N 38°48' W 090°07'1 2.8
2018-Apr-29 06:00N 38°46' W 090°08'0 0.0
2018-Apr-29 05:30N 38°46' W 090°08'1 2.8
2018-Apr-29 05:00N 38°45' W 090°09'1 1.8
2018-Apr-29 04:31N 38°44' W 090°09'2 3.9
2018-Apr-29 04:00N 38°43' W 090°10'1 1.3
2018-Apr-29 03:16N 38°42' W 090°11'0 0.9
2018-Apr-29 02:59N 38°42' W 090°11'1 3.0
2018-Apr-29 02:30N 38°40' W 090°11'3 0.1
2018-Apr-27 20:15N 38°37' W 090°11'2 8.2
2018-Apr-27 20:00N 38°39' W 090°11'2 4.6
2018-Apr-27 19:29N 38°42' W 090°11'0 0.7
2018-Apr-27 18:58N 38°42' W 090°11'0 1.0
2018-Apr-27 18:29N 38°43' W 090°11'1 2.4
2018-Apr-27 18:00N 38°44' W 090°10'2 3.4
2018-Apr-27 17:29N 38°45' W 090°09'2 3.5
2018-Apr-27 16:59N 38°47' W 090°08'3 5.3
2018-Apr-27 16:30N 38°49' W 090°07'3 5.6
2018-Apr-27 16:00N 38°52' W 090°08'1 1.8
2018-Apr-27 15:30N 38°52' W 090°09'0 0.7
2018-Apr-27 15:00N 38°52' W 090°10'2 4.7
2018-Apr-27 14:30N 38°54' W 090°12'3 5.6
2018-Apr-27 14:00N 38°55' W 090°15'3 6.0
2018-Apr-27 13:30N 38°55' W 090°19'3 6.2
2018-Apr-27 13:00N 38°57' W 090°22'3 6.0
2018-Apr-27 12:31N 38°58' W 090°26'3 6.0
2018-Apr-27 12:00N 38°56' W 090°29'3 6.0
2018-Apr-27 11:30N 38°54' W 090°32'3 6.0
2018-Apr-27 11:00N 38°52' W 090°35'3 5.6
2018-Apr-27 10:30N 38°54' W 090°38'3 6.2
2018-Apr-27 10:00N 38°56' W 090°40'3 6.6
2018-Apr-27 09:30N 38°59' W 090°41'1 1.8
2018-Apr-27 09:00N 39°00' W 090°41'0 0.0
2018-Apr-27 08:30N 39°00' W 090°41'0 0.2
2018-Apr-27 08:00N 39°00' W 090°41'0 0.0
2018-Apr-27 07:30N 39°00' W 090°41'0 0.4
2018-Apr-27 07:01N 39°00' W 090°42'2 4.3
2018-Apr-27 06:30N 39°02' W 090°43'0 0.9
2018-Apr-27 06:01N 39°03' W 090°43'2 1.4
2018-Apr-27 04:18N 39°05' W 090°41'2 5.9
2018-Apr-27 03:59N 39°07' W 090°41'  
2018-Apr-21 17:38N 39°11' W 090°43'2 4.7
2018-Apr-21 17:14N 39°10' W 090°43'1 4.7
2018-Apr-21 17:00N 39°09' W 090°43'0 0.2
2018-Apr-21 16:30N 39°08' W 090°43'2 3.0
2018-Apr-21 15:55N 39°07' W 090°41'2 4.8
2018-Apr-21 15:30N 39°05' W 090°41'2 4.8
2018-Apr-21 15:00N 39°03' W 090°43'2 4.3
2018-Apr-21 14:30N 39°01' W 090°42'1 2.2
2018-Apr-21 14:00N 39°00' W 090°41'1 2.8
2018-Apr-21 13:30N 38°59' W 090°41'2 4.5
2018-Apr-21 13:00N 38°57' W 090°40'2 4.3
2018-Apr-21 12:30N 38°55' W 090°39'2 4.4
2018-Apr-21 12:01N 38°53' W 090°37'2 4.2
2018-Apr-21 11:31N 38°52' W 090°35'2 4.3
2018-Apr-21 11:00N 38°53' W 090°32'2 4.4
2018-Apr-21 10:30N 38°55' W 090°31'2 4.4
2018-Apr-21 10:00N 38°56' W 090°29'1 2.8
2018-Apr-21 09:31N 38°57' W 090°28'0 0.4
2018-Apr-21 09:00N 38°57' W 090°28'3 5.8
2018-Apr-21 08:30N 38°58' W 090°24'0 0.8
2018-Apr-21 08:00N 38°58' W 090°24'0 0.0
2018-Apr-21 07:30N 38°58' W 090°24'2 3.0
2018-Apr-21 07:00N 38°57' W 090°22'2 4.4
2018-Apr-21 06:30N 38°56' W 090°20'2 3.3
2018-Apr-21 06:01N 38°55' W 090°17'2 4.8
2018-Apr-21 05:30N 38°55' W 090°14'2 4.7
2018-Apr-21 05:00N 38°54' W 090°12'2 4.7
2018-Apr-21 04:30N 38°52' W 090°10'1 1.4
2018-Apr-21 04:00N 38°52' W 090°09'0 0.5
2018-Apr-21 03:30N 38°52' W 090°09'0 0.0
2018-Apr-21 03:00N 38°52' W 090°09'0 0.0
2018-Apr-21 02:30N 38°52' W 090°09'0 1.0
2018-Apr-21 02:00N 38°52' W 090°08'1 3.0
2018-Apr-21 01:30N 38°51' W 090°07'2 3.1
2018-Apr-21 01:00N 38°49' W 090°07'3 5.0
2018-Apr-21 00:30N 38°47' W 090°08'2 4.2
2018-Apr-21 00:00N 38°45' W 090°09'2 4.7
2018-Apr-20 23:29N 38°43' W 090°10'1 1.4
2018-Apr-20 22:58N 38°42' W 090°11'1 2.7
2018-Apr-20 22:30N 38°41' W 090°11'2 3.0
2018-Apr-20 21:59N 38°39' W 090°11'2 1.7
2018-Apr-20 20:54N 38°38' W 090°11'6 0.7
2018-Apr-20 12:56N 38°33' W 090°15'2 0.3
2018-Apr-20 06:15N 38°31' W 090°16'2 7.7
2018-Apr-20 05:59N 38°33' W 090°15'4 7.9
2018-Apr-20 05:30N 38°36' W 090°12'4 8.5
2018-Apr-20 05:00N 38°40' W 090°11'2 3.7
2018-Apr-20 04:30N 38°42' W 090°11'0 0.5
2018-Apr-20 04:00N 38°42' W 090°11'1 1.8
2018-Apr-20 03:30N 38°43' W 090°10'1 1.8
2018-Apr-20 03:01N 38°44' W 090°10'0 0.3
2018-Apr-20 02:30N 38°44' W 090°10'0 0.1
2018-Apr-20 02:00N 38°44' W 090°10'0 0.3
2018-Apr-20 01:30N 38°44' W 090°10'1 1.6
2018-Apr-20 01:00N 38°45' W 090°09'1 2.6
2018-Apr-20 00:30N 38°46' W 090°08'1 2.8
2018-Apr-20 00:00N 38°47' W 090°07'3 6.4
2018-Apr-19 23:30N 38°50' W 090°06'3 5.3
2018-Apr-19 23:00N 38°52' W 090°09'0 0.5
2018-Apr-19 22:30N 38°52' W 090°09'1 2.0
2018-Apr-19 22:00N 38°53' W 090°10'2 4.9
2018-Apr-19 21:30N 38°54' W 090°13'3 5.7
2018-Apr-19 21:00N 38°55' W 090°16'3 5.6
2018-Apr-19 20:30N 38°56' W 090°20'  
Track history (hours):
 
Tides and Currents Weather Stations Pressure Air Temp Water Temp Dewpoint Dewpoint Depression Visibility Wind Speed Wind Dir Waves Ship Positions

Kevin Michael

Owner: Steel City Marine Transport, Inc., Freedom, PA. More information available from US FCC via Universal Licensing System and Coast Guard Vessel Documentation Center.

Last reported at 2018-Apr-29 20:18 UTC. Time now 2018-May-22 19:32 UTC.
Position N 39°12' W 090°36'.
Warning: this ship's position is 22 days out of date.

Length 36 m.

Type: Towing. MMSI: 367383660.

Date/timePositionNaut miles runAvg speedWind from/ knotsBaromVisibWave heightAir tempDewpointWater temp
2018-Apr-29 20:18N 39°12' W 090°36'1 3.5
2018-Apr-29 19:59N 39°11' W 090°36'2 3.7
2018-Apr-29 19:30N 39°09' W 090°37'1 1.8
2018-Apr-29 18:51N 39°08' W 090°36'1 3.8
2018-Apr-29 18:29N 39°06' W 090°36'2 3.9
2018-Apr-29 17:54N 39°04' W 090°35'1 3.1
2018-Apr-29 17:30N 39°03' W 090°35'2 3.6
2018-Apr-29 16:59N 39°01' W 090°34'2 3.5
2018-Apr-29 16:30N 38°60' W 090°34'2 3.5
2018-Apr-29 16:00N 38°58' W 090°33'2 3.7
2018-Apr-29 15:30N 38°57' W 090°31'2 3.9
2018-Apr-29 15:00N 38°58' W 090°28'2 4.3
2018-Apr-29 14:31N 38°58' W 090°26'2 4.0
2018-Apr-29 14:00N 38°58' W 090°23'2 4.4
2018-Apr-29 13:30N 38°56' W 090°21'2 4.3
2018-Apr-29 13:00N 38°55' W 090°18'0 0.8
2018-Apr-29 12:30N 38°55' W 090°18'1 2.3
2018-Apr-29 12:01N 38°55' W 090°16'2 4.2
2018-Apr-29 11:30N 38°55' W 090°14'2 4.2
2018-Apr-29 11:00N 38°53' W 090°12'2 4.5
2018-Apr-29 10:30N 38°52' W 090°09'0 0.9
2018-Apr-29 10:00N 38°52' W 090°09'1 1.7
2018-Apr-29 09:31N 38°52' W 090°08'0 0.5
2018-Apr-29 09:00N 38°51' W 090°08'0 0.0
2018-Apr-29 08:30N 38°51' W 090°08'0 0.0
2018-Apr-29 08:00N 38°51' W 090°08'1 1.6
2018-Apr-29 07:31N 38°51' W 090°07'1 2.9
2018-Apr-29 07:00N 38°50' W 090°07'2 3.7
2018-Apr-29 06:31N 38°48' W 090°07'1 2.8
2018-Apr-29 06:00N 38°46' W 090°08'0 0.0
2018-Apr-29 05:30N 38°46' W 090°08'1 2.8
2018-Apr-29 05:00N 38°45' W 090°09'1 1.8
2018-Apr-29 04:31N 38°44' W 090°09'2 3.9
2018-Apr-29 04:00N 38°43' W 090°10'1 1.3
2018-Apr-29 03:16N 38°42' W 090°11'0 0.9
2018-Apr-29 02:59N 38°42' W 090°11'1 3.0
2018-Apr-29 02:30N 38°40' W 090°11'3 0.1
2018-Apr-27 20:15N 38°37' W 090°11'2 8.2
2018-Apr-27 20:00N 38°39' W 090°11'2 4.6
2018-Apr-27 19:29N 38°42' W 090°11'0 0.7
2018-Apr-27 18:58N 38°42' W 090°11'0 1.0
2018-Apr-27 18:29N 38°43' W 090°11'1 2.4
2018-Apr-27 18:00N 38°44' W 090°10'2 3.4
2018-Apr-27 17:29N 38°45' W 090°09'2 3.5
2018-Apr-27 16:59N 38°47' W 090°08'3 5.3
2018-Apr-27 16:30N 38°49' W 090°07'3 5.6
2018-Apr-27 16:00N 38°52' W 090°08'1 1.8
2018-Apr-27 15:30N 38°52' W 090°09'0 0.7
2018-Apr-27 15:00N 38°52' W 090°10'2 4.7
2018-Apr-27 14:30N 38°54' W 090°12'3 5.6
2018-Apr-27 14:00N 38°55' W 090°15'3 6.0
2018-Apr-27 13:30N 38°55' W 090°19'3 6.2
2018-Apr-27 13:00N 38°57' W 090°22'3 6.0
2018-Apr-27 12:31N 38°58' W 090°26'3 6.0
2018-Apr-27 12:00N 38°56' W 090°29'3 6.0
2018-Apr-27 11:30N 38°54' W 090°32'3 6.0
2018-Apr-27 11:00N 38°52' W 090°35'3 5.6
2018-Apr-27 10:30N 38°54' W 090°38'3 6.2
2018-Apr-27 10:00N 38°56' W 090°40'3 6.6
2018-Apr-27 09:30N 38°59' W 090°41'1 1.8
2018-Apr-27 09:00N 39°00' W 090°41'0 0.0
2018-Apr-27 08:30N 39°00' W 090°41'0 0.2
2018-Apr-27 08:00N 39°00' W 090°41'0 0.0
2018-Apr-27 07:30N 39°00' W 090°41'0 0.4
2018-Apr-27 07:01N 39°00' W 090°42'2 4.3
2018-Apr-27 06:30N 39°02' W 090°43'0 0.9
2018-Apr-27 06:01N 39°03' W 090°43'2 1.4
2018-Apr-27 04:18N 39°05' W 090°41'2 5.9
2018-Apr-27 03:59N 39°07' W 090°41'  
2018-Apr-21 17:38N 39°11' W 090°43'2 4.7
2018-Apr-21 17:14N 39°10' W 090°43'1 4.7
2018-Apr-21 17:00N 39°09' W 090°43'0 0.2
2018-Apr-21 16:30N 39°08' W 090°43'2 3.0
2018-Apr-21 15:55N 39°07' W 090°41'2 4.8
2018-Apr-21 15:30N 39°05' W 090°41'2 4.8
2018-Apr-21 15:00N 39°03' W 090°43'2 4.3
2018-Apr-21 14:30N 39°01' W 090°42'1 2.2
2018-Apr-21 14:00N 39°00' W 090°41'1 2.8
2018-Apr-21 13:30N 38°59' W 090°41'2 4.5
2018-Apr-21 13:00N 38°57' W 090°40'2 4.3
2018-Apr-21 12:30N 38°55' W 090°39'2 4.4
2018-Apr-21 12:01N 38°53' W 090°37'2 4.2
2018-Apr-21 11:31N 38°52' W 090°35'2 4.3
2018-Apr-21 11:00N 38°53' W 090°32'2 4.4
2018-Apr-21 10:30N 38°55' W 090°31'2 4.4
2018-Apr-21 10:00N 38°56' W 090°29'1 2.8
2018-Apr-21 09:31N 38°57' W 090°28'0 0.4
2018-Apr-21 09:00N 38°57' W 090°28'3 5.8
2018-Apr-21 08:30N 38°58' W 090°24'0 0.8
2018-Apr-21 08:00N 38°58' W 090°24'0 0.0
2018-Apr-21 07:30N 38°58' W 090°24'2 3.0
2018-Apr-21 07:00N 38°57' W 090°22'2 4.4
2018-Apr-21 06:30N 38°56' W 090°20'2 3.3
2018-Apr-21 06:01N 38°55' W 090°17'2 4.8
2018-Apr-21 05:30N 38°55' W 090°14'2 4.7
2018-Apr-21 05:00N 38°54' W 090°12'2 4.7
2018-Apr-21 04:30N 38°52' W 090°10'1 1.4
2018-Apr-21 04:00N 38°52' W 090°09'0 0.5
2018-Apr-21 03:30N 38°52' W 090°09'0 0.0
2018-Apr-21 03:00N 38°52' W 090°09'0 0.0
2018-Apr-21 02:30N 38°52' W 090°09'0 1.0
2018-Apr-21 02:00N 38°52' W 090°08'1 3.0
2018-Apr-21 01:30N 38°51' W 090°07'2 3.1
2018-Apr-21 01:00N 38°49' W 090°07'3 5.0
2018-Apr-21 00:30N 38°47' W 090°08'2 4.2
2018-Apr-21 00:00N 38°45' W 090°09'2 4.7
2018-Apr-20 23:29N 38°43' W 090°10'1 1.4
2018-Apr-20 22:58N 38°42' W 090°11'1 2.7
2018-Apr-20 22:30N 38°41' W 090°11'2 3.0
2018-Apr-20 21:59N 38°39' W 090°11'2 1.7
2018-Apr-20 20:54N 38°38' W 090°11'6 0.7
2018-Apr-20 12:56N 38°33' W 090°15'2 0.3
2018-Apr-20 06:15N 38°31' W 090°16'2 7.7
2018-Apr-20 05:59N 38°33' W 090°15'4 7.9
2018-Apr-20 05:30N 38°36' W 090°12'4 8.5
2018-Apr-20 05:00N 38°40' W 090°11'2 3.7
2018-Apr-20 04:30N 38°42' W 090°11'0 0.5
2018-Apr-20 04:00N 38°42' W 090°11'1 1.8
2018-Apr-20 03:30N 38°43' W 090°10'1 1.8
2018-Apr-20 03:01N 38°44' W 090°10'0 0.3
2018-Apr-20 02:30N 38°44' W 090°10'0 0.1
2018-Apr-20 02:00N 38°44' W 090°10'0 0.3
2018-Apr-20 01:30N 38°44' W 090°10'1 1.6
2018-Apr-20 01:00N 38°45' W 090°09'1 2.6
2018-Apr-20 00:30N 38°46' W 090°08'1 2.8
2018-Apr-20 00:00N 38°47' W 090°07'3 6.4
2018-Apr-19 23:30N 38°50' W 090°06'3 5.3
2018-Apr-19 23:00N 38°52' W 090°09'0 0.5
2018-Apr-19 22:30N 38°52' W 090°09'1 2.0
2018-Apr-19 22:00N 38°53' W 090°10'2 4.9
2018-Apr-19 21:30N 38°54' W 090°13'3 5.7
2018-Apr-19 21:00N 38°55' W 090°16'3 5.6
2018-Apr-19 20:30N 38°56' W 090°20'  

Dump ship's entire track history